sensor_id;sensor_type;location;lat;lon;timestamp;P1;durP1;ratioP1;P2;durP2;ratioP2
79202;SDS011;68630;42.748;23.278;2024-03-02T00:01:58;83.00;;;38.33;;
79202;SDS011;68630;42.748;23.278;2024-03-02T00:04:26;81.08;;;37.13;;
79202;SDS011;68630;42.748;23.278;2024-03-02T00:06:53;70.60;;;33.55;;
79202;SDS011;68630;42.748;23.278;2024-03-02T00:09:22;71.47;;;34.50;;
79202;SDS011;68630;42.748;23.278;2024-03-02T00:11:52;80.15;;;35.23;;
79202;SDS011;68630;42.748;23.278;2024-03-02T00:14:21;76.35;;;34.30;;
79202;SDS011;68630;42.748;23.278;2024-03-02T00:16:51;65.87;;;31.23;;
79202;SDS011;68630;42.748;23.278;2024-03-02T00:19:22;72.53;;;34.48;;
79202;SDS011;68630;42.748;23.278;2024-03-02T00:21:50;70.90;;;33.53;;
79202;SDS011;68630;42.748;23.278;2024-03-02T00:24:39;70.45;;;33.35;;
79202;SDS011;68630;42.748;23.278;2024-03-02T00:27:04;72.42;;;33.28;;
79202;SDS011;68630;42.748;23.278;2024-03-02T00:29:35;76.53;;;33.90;;
79202;SDS011;68630;42.748;23.278;2024-03-02T00:32:09;71.12;;;31.35;;
79202;SDS011;68630;42.748;23.278;2024-03-02T00:34:40;67.75;;;32.95;;
79202;SDS011;68630;42.748;23.278;2024-03-02T00:37:08;80.50;;;34.20;;
79202;SDS011;68630;42.748;23.278;2024-03-02T00:39:36;73.40;;;32.85;;
79202;SDS011;68630;42.748;23.278;2024-03-02T00:42:07;62.05;;;30.70;;
79202;SDS011;68630;42.748;23.278;2024-03-02T00:44:35;71.72;;;29.95;;
79202;SDS011;68630;42.748;23.278;2024-03-02T00:47:03;65.20;;;30.32;;
79202;SDS011;68630;42.748;23.278;2024-03-02T00:49:33;68.17;;;32.23;;
79202;SDS011;68630;42.748;23.278;2024-03-02T00:52:00;63.17;;;31.02;;
79202;SDS011;68630;42.748;23.278;2024-03-02T00:54:28;69.47;;;31.60;;
79202;SDS011;68630;42.748;23.278;2024-03-02T00:56:58;70.80;;;31.52;;
79202;SDS011;68630;42.748;23.278;2024-03-02T00:59:25;66.12;;;31.27;;
79202;SDS011;68630;42.748;23.278;2024-03-02T01:01:57;69.17;;;30.75;;
79202;SDS011;68630;42.748;23.278;2024-03-02T01:04:24;63.90;;;30.05;;
79202;SDS011;68630;42.748;23.278;2024-03-02T01:06:52;65.62;;;30.55;;
79202;SDS011;68630;42.748;23.278;2024-03-02T01:09:19;71.02;;;30.05;;
79202;SDS011;68630;42.748;23.278;2024-03-02T01:11:48;69.27;;;31.42;;
79202;SDS011;68630;42.748;23.278;2024-03-02T01:14:16;65.22;;;29.72;;
79202;SDS011;68630;42.748;23.278;2024-03-02T01:16:45;61.35;;;28.80;;
79202;SDS011;68630;42.748;23.278;2024-03-02T01:19:14;72.95;;;30.37;;
79202;SDS011;68630;42.748;23.278;2024-03-02T01:21:42;65.03;;;29.55;;
79202;SDS011;68630;42.748;23.278;2024-03-02T01:24:10;69.20;;;30.95;;
79202;SDS011;68630;42.748;23.278;2024-03-02T01:26:40;67.55;;;30.65;;
79202;SDS011;68630;42.748;23.278;2024-03-02T01:29:08;70.87;;;32.03;;
79202;SDS011;68630;42.748;23.278;2024-03-02T01:31:39;68.72;;;31.00;;
79202;SDS011;68630;42.748;23.278;2024-03-02T01:34:08;64.60;;;30.00;;
79202;SDS011;68630;42.748;23.278;2024-03-02T01:36:35;75.03;;;32.50;;
79202;SDS011;68630;42.748;23.278;2024-03-02T01:39:05;58.83;;;28.40;;
79202;SDS011;68630;42.748;23.278;2024-03-02T01:41:34;67.95;;;30.90;;
79202;SDS011;68630;42.748;23.278;2024-03-02T01:44:01;68.92;;;30.97;;
79202;SDS011;68630;42.748;23.278;2024-03-02T01:46:30;69.62;;;30.10;;
79202;SDS011;68630;42.748;23.278;2024-03-02T01:49:00;67.32;;;30.62;;
79202;SDS011;68630;42.748;23.278;2024-03-02T01:51:29;64.62;;;31.55;;
79202;SDS011;68630;42.748;23.278;2024-03-02T01:53:57;77.45;;;31.62;;
79202;SDS011;68630;42.748;23.278;2024-03-02T01:56:25;81.37;;;31.30;;
79202;SDS011;68630;42.748;23.278;2024-03-02T01:58:54;71.85;;;32.15;;
79202;SDS011;68630;42.748;23.278;2024-03-02T02:01:23;80.97;;;33.55;;
79202;SDS011;68630;42.748;23.278;2024-03-02T02:06:43;69.58;;;31.60;;
79202;SDS011;68630;42.748;23.278;2024-03-02T02:09:12;76.05;;;34.15;;
79202;SDS011;68630;42.748;23.278;2024-03-02T02:11:39;75.60;;;34.13;;
79202;SDS011;68630;42.748;23.278;2024-03-02T02:14:08;74.80;;;33.78;;
79202;SDS011;68630;42.748;23.278;2024-03-02T02:16:36;82.37;;;34.53;;
79202;SDS011;68630;42.748;23.278;2024-03-02T02:19:04;81.90;;;35.10;;
79202;SDS011;68630;42.748;23.278;2024-03-02T02:21:31;78.70;;;32.50;;
79202;SDS011;68630;42.748;23.278;2024-03-02T02:24:10;84.10;;;35.10;;
79202;SDS011;68630;42.748;23.278;2024-03-02T02:26:38;79.65;;;34.63;;
79202;SDS011;68630;42.748;23.278;2024-03-02T02:29:08;77.12;;;32.63;;
79202;SDS011;68630;42.748;23.278;2024-03-02T02:31:38;75.25;;;34.10;;
79202;SDS011;68630;42.748;23.278;2024-03-02T02:34:07;76.35;;;33.73;;
79202;SDS011;68630;42.748;23.278;2024-03-02T02:36:37;78.83;;;34.38;;
79202;SDS011;68630;42.748;23.278;2024-03-02T02:39:06;74.10;;;33.48;;
79202;SDS011;68630;42.748;23.278;2024-03-02T02:41:36;77.30;;;34.85;;
79202;SDS011;68630;42.748;23.278;2024-03-02T02:44:04;83.37;;;37.10;;
79202;SDS011;68630;42.748;23.278;2024-03-02T02:46:32;80.77;;;36.80;;
79202;SDS011;68630;42.748;23.278;2024-03-02T02:48:59;79.60;;;36.55;;
79202;SDS011;68630;42.748;23.278;2024-03-02T02:51:27;79.95;;;35.83;;
79202;SDS011;68630;42.748;23.278;2024-03-02T02:53:54;72.55;;;34.13;;
79202;SDS011;68630;42.748;23.278;2024-03-02T02:56:22;84.35;;;36.40;;
79202;SDS011;68630;42.748;23.278;2024-03-02T02:58:51;78.33;;;36.83;;
79202;SDS011;68630;42.748;23.278;2024-03-02T03:01:20;78.42;;;34.30;;
79202;SDS011;68630;42.748;23.278;2024-03-02T03:03:47;65.55;;;31.95;;
79202;SDS011;68630;42.748;23.278;2024-03-02T03:06:15;67.55;;;32.23;;
79202;SDS011;68630;42.748;23.278;2024-03-02T03:08:44;72.95;;;32.35;;
79202;SDS011;68630;42.748;23.278;2024-03-02T03:11:11;73.60;;;33.67;;
79202;SDS011;68630;42.748;23.278;2024-03-02T03:13:40;73.10;;;34.98;;
79202;SDS011;68630;42.748;23.278;2024-03-02T03:16:07;69.47;;;32.48;;
79202;SDS011;68630;42.748;23.278;2024-03-02T03:18:35;69.60;;;32.13;;
79202;SDS011;68630;42.748;23.278;2024-03-02T03:21:04;63.17;;;31.05;;
79202;SDS011;68630;42.748;23.278;2024-03-02T03:23:31;69.75;;;32.00;;
79202;SDS011;68630;42.748;23.278;2024-03-02T03:25:59;65.15;;;31.40;;
79202;SDS011;68630;42.748;23.278;2024-03-02T03:28:26;67.97;;;30.57;;
79202;SDS011;68630;42.748;23.278;2024-03-02T03:34:10;64.72;;;29.80;;
79202;SDS011;68630;42.748;23.278;2024-03-02T03:36:39;66.90;;;32.28;;
79202;SDS011;68630;42.748;23.278;2024-03-02T03:39:06;72.05;;;31.57;;
79202;SDS011;68630;42.748;23.278;2024-03-02T03:41:36;71.02;;;32.53;;
79202;SDS011;68630;42.748;23.278;2024-03-02T03:44:03;65.45;;;30.97;;
79202;SDS011;68630;42.748;23.278;2024-03-02T03:46:31;79.67;;;32.78;;
79202;SDS011;68630;42.748;23.278;2024-03-02T03:48:58;72.22;;;32.78;;
79202;SDS011;68630;42.748;23.278;2024-03-02T03:51:26;76.28;;;33.45;;
79202;SDS011;68630;42.748;23.278;2024-03-02T03:53:53;74.37;;;33.65;;
79202;SDS011;68630;42.748;23.278;2024-03-02T03:56:21;69.17;;;32.17;;
79202;SDS011;68630;42.748;23.278;2024-03-02T03:58:48;65.67;;;31.33;;
79202;SDS011;68630;42.748;23.278;2024-03-02T04:01:16;66.20;;;31.30;;
79202;SDS011;68630;42.748;23.278;2024-03-02T04:03:45;72.67;;;33.67;;
79202;SDS011;68630;42.748;23.278;2024-03-02T04:06:12;81.50;;;34.13;;
79202;SDS011;68630;42.748;23.278;2024-03-02T04:08:42;77.67;;;34.67;;
79202;SDS011;68630;42.748;23.278;2024-03-02T04:11:09;75.12;;;34.43;;
79202;SDS011;68630;42.748;23.278;2024-03-02T04:13:37;70.55;;;33.73;;
79202;SDS011;68630;42.748;23.278;2024-03-02T04:16:05;79.67;;;36.48;;
79202;SDS011;68630;42.748;23.278;2024-03-02T04:18:32;80.87;;;36.40;;
79202;SDS011;68630;42.748;23.278;2024-03-02T04:21:00;83.25;;;37.00;;
79202;SDS011;68630;42.748;23.278;2024-03-02T04:23:28;78.12;;;34.67;;
79202;SDS011;68630;42.748;23.278;2024-03-02T04:25:55;79.60;;;35.85;;
79202;SDS011;68630;42.748;23.278;2024-03-02T04:28:26;79.15;;;35.83;;
79202;SDS011;68630;42.748;23.278;2024-03-02T04:30:53;87.35;;;35.65;;
79202;SDS011;68630;42.748;23.278;2024-03-02T04:33:21;90.42;;;36.93;;
79202;SDS011;68630;42.748;23.278;2024-03-02T04:35:48;79.40;;;34.05;;
79202;SDS011;68630;42.748;23.278;2024-03-02T04:38:16;76.97;;;34.05;;
79202;SDS011;68630;42.748;23.278;2024-03-02T04:40:44;72.10;;;31.82;;
79202;SDS011;68630;42.748;23.278;2024-03-02T04:43:12;71.75;;;31.95;;
79202;SDS011;68630;42.748;23.278;2024-03-02T04:45:41;71.47;;;32.73;;
79202;SDS011;68630;42.748;23.278;2024-03-02T04:48:09;82.08;;;32.98;;
79202;SDS011;68630;42.748;23.278;2024-03-02T04:50:36;104.27;;;41.60;;
79202;SDS011;68630;42.748;23.278;2024-03-02T04:53:06;87.70;;;37.75;;
79202;SDS011;68630;42.748;23.278;2024-03-02T04:55:33;87.15;;;37.95;;
79202;SDS011;68630;42.748;23.278;2024-03-02T04:58:02;84.45;;;35.78;;
79202;SDS011;68630;42.748;23.278;2024-03-02T05:03:08;87.37;;;38.50;;
79202;SDS011;68630;42.748;23.278;2024-03-02T05:05:37;91.15;;;36.98;;
79202;SDS011;68630;42.748;23.278;2024-03-02T05:08:05;88.75;;;37.20;;
79202;SDS011;68630;42.748;23.278;2024-03-02T05:10:32;92.47;;;38.58;;
79202;SDS011;68630;42.748;23.278;2024-03-02T05:13:01;86.60;;;36.75;;
79202;SDS011;68630;42.748;23.278;2024-03-02T05:15:29;84.00;;;36.45;;
79202;SDS011;68630;42.748;23.278;2024-03-02T05:17:57;88.30;;;37.90;;
79202;SDS011;68630;42.748;23.278;2024-03-02T05:20:25;90.55;;;37.85;;
79202;SDS011;68630;42.748;23.278;2024-03-02T05:26:07;97.00;;;39.78;;
79202;SDS011;68630;42.748;23.278;2024-03-02T05:28:36;92.57;;;38.02;;
79202;SDS011;68630;42.748;23.278;2024-03-02T05:31:03;92.60;;;37.73;;
79202;SDS011;68630;42.748;23.278;2024-03-02T05:33:32;91.70;;;39.20;;
79202;SDS011;68630;42.748;23.278;2024-03-02T05:35:59;91.37;;;39.70;;
79202;SDS011;68630;42.748;23.278;2024-03-02T05:38:27;95.62;;;39.63;;
79202;SDS011;68630;42.748;23.278;2024-03-02T05:40:55;98.20;;;38.45;;
79202;SDS011;68630;42.748;23.278;2024-03-02T05:43:24;95.00;;;38.05;;
79202;SDS011;68630;42.748;23.278;2024-03-02T05:46:03;97.62;;;39.27;;
79202;SDS011;68630;42.748;23.278;2024-03-02T05:48:30;91.42;;;38.02;;
79202;SDS011;68630;42.748;23.278;2024-03-02T05:51:00;102.53;;;40.75;;
79202;SDS011;68630;42.748;23.278;2024-03-02T05:53:31;101.10;;;39.73;;
79202;SDS011;68630;42.748;23.278;2024-03-02T05:58:53;90.17;;;38.28;;
79202;SDS011;68630;42.748;23.278;2024-03-02T06:04:36;91.35;;;35.83;;
79202;SDS011;68630;42.748;23.278;2024-03-02T06:07:03;97.30;;;35.25;;
79202;SDS011;68630;42.748;23.278;2024-03-02T06:09:34;96.32;;;39.10;;
79202;SDS011;68630;42.748;23.278;2024-03-02T06:12:07;104.35;;;39.78;;
79202;SDS011;68630;42.748;23.278;2024-03-02T06:14:36;102.92;;;38.90;;
79202;SDS011;68630;42.748;23.278;2024-03-02T06:17:04;107.27;;;39.73;;
79202;SDS011;68630;42.748;23.278;2024-03-02T06:19:36;95.90;;;36.58;;
79202;SDS011;68630;42.748;23.278;2024-03-02T06:22:05;109.03;;;40.45;;
79202;SDS011;68630;42.748;23.278;2024-03-02T06:24:34;95.47;;;37.23;;
79202;SDS011;68630;42.748;23.278;2024-03-02T06:27:09;101.25;;;37.03;;
79202;SDS011;68630;42.748;23.278;2024-03-02T06:29:42;99.22;;;37.73;;
79202;SDS011;68630;42.748;23.278;2024-03-02T06:32:12;99.42;;;36.90;;
79202;SDS011;68630;42.748;23.278;2024-03-02T06:34:45;101.72;;;39.03;;
79202;SDS011;68630;42.748;23.278;2024-03-02T06:37:20;103.62;;;39.58;;
79202;SDS011;68630;42.748;23.278;2024-03-02T06:39:56;101.02;;;37.98;;
79202;SDS011;68630;42.748;23.278;2024-03-02T06:42:47;97.92;;;37.80;;
79202;SDS011;68630;42.748;23.278;2024-03-02T06:45:16;99.00;;;37.20;;
79202;SDS011;68630;42.748;23.278;2024-03-02T06:47:46;111.90;;;38.25;;
79202;SDS011;68630;42.748;23.278;2024-03-02T06:50:18;104.25;;;38.35;;
79202;SDS011;68630;42.748;23.278;2024-03-02T06:52:50;105.20;;;39.53;;
79202;SDS011;68630;42.748;23.278;2024-03-02T06:55:21;109.12;;;40.03;;
79202;SDS011;68630;42.748;23.278;2024-03-02T06:57:54;106.52;;;40.60;;
79202;SDS011;68630;42.748;23.278;2024-03-02T07:00:33;101.12;;;37.60;;
79202;SDS011;68630;42.748;23.278;2024-03-02T07:03:04;94.03;;;37.03;;
79202;SDS011;68630;42.748;23.278;2024-03-02T07:08:16;92.40;;;34.63;;
79202;SDS011;68630;42.748;23.278;2024-03-02T07:10:45;105.60;;;38.10;;
79202;SDS011;68630;42.748;23.278;2024-03-02T07:13:20;93.47;;;37.85;;
79202;SDS011;68630;42.748;23.278;2024-03-02T07:15:51;90.40;;;35.43;;
79202;SDS011;68630;42.748;23.278;2024-03-02T07:18:38;94.40;;;36.83;;
79202;SDS011;68630;42.748;23.278;2024-03-02T07:21:11;94.13;;;37.93;;
79202;SDS011;68630;42.748;23.278;2024-03-02T07:23:46;98.78;;;38.15;;
79202;SDS011;68630;42.748;23.278;2024-03-02T07:26:13;100.38;;;38.33;;
79202;SDS011;68630;42.748;23.278;2024-03-02T07:28:41;83.75;;;34.40;;
79202;SDS011;68630;42.748;23.278;2024-03-02T07:31:14;96.75;;;36.30;;
79202;SDS011;68630;42.748;23.278;2024-03-02T07:33:47;100.87;;;35.45;;
79202;SDS011;68630;42.748;23.278;2024-03-02T07:36:12;100.25;;;37.08;;
79202;SDS011;68630;42.748;23.278;2024-03-02T07:38:40;107.87;;;39.30;;
79202;SDS011;68630;42.748;23.278;2024-03-02T07:41:10;117.70;;;40.63;;
79202;SDS011;68630;42.748;23.278;2024-03-02T07:43:38;105.07;;;37.95;;
79202;SDS011;68630;42.748;23.278;2024-03-02T07:46:05;92.97;;;37.15;;
79202;SDS011;68630;42.748;23.278;2024-03-02T07:48:39;90.17;;;34.83;;
79202;SDS011;68630;42.748;23.278;2024-03-02T07:51:08;90.65;;;34.98;;
79202;SDS011;68630;42.748;23.278;2024-03-02T07:53:39;99.85;;;37.90;;
79202;SDS011;68630;42.748;23.278;2024-03-02T07:56:12;109.85;;;36.75;;
79202;SDS011;68630;42.748;23.278;2024-03-02T07:58:41;115.17;;;37.67;;
79202;SDS011;68630;42.748;23.278;2024-03-02T08:01:10;89.37;;;33.90;;
79202;SDS011;68630;42.748;23.278;2024-03-02T08:03:38;91.22;;;34.83;;
79202;SDS011;68630;42.748;23.278;2024-03-02T08:06:06;98.90;;;37.42;;
79202;SDS011;68630;42.748;23.278;2024-03-02T08:08:33;92.57;;;35.55;;
79202;SDS011;68630;42.748;23.278;2024-03-02T08:11:01;93.65;;;37.00;;
79202;SDS011;68630;42.748;23.278;2024-03-02T08:13:30;91.25;;;36.30;;
79202;SDS011;68630;42.748;23.278;2024-03-02T08:15:57;109.45;;;39.35;;
79202;SDS011;68630;42.748;23.278;2024-03-02T08:18:27;96.15;;;36.68;;
79202;SDS011;68630;42.748;23.278;2024-03-02T08:20:54;87.17;;;34.63;;
79202;SDS011;68630;42.748;23.278;2024-03-02T08:23:22;83.25;;;32.38;;
79202;SDS011;68630;42.748;23.278;2024-03-02T08:25:49;91.20;;;36.13;;
79202;SDS011;68630;42.748;23.278;2024-03-02T08:28:18;97.02;;;37.90;;
79202;SDS011;68630;42.748;23.278;2024-03-02T08:30:46;103.50;;;39.20;;
79202;SDS011;68630;42.748;23.278;2024-03-02T08:33:14;93.25;;;35.33;;
79202;SDS011;68630;42.748;23.278;2024-03-02T08:35:41;113.97;;;47.60;;
79202;SDS011;68630;42.748;23.278;2024-03-02T08:38:09;106.75;;;46.53;;
79202;SDS011;68630;42.748;23.278;2024-03-02T08:40:40;107.55;;;46.58;;
79202;SDS011;68630;42.748;23.278;2024-03-02T08:43:07;97.92;;;40.88;;
79202;SDS011;68630;42.748;23.278;2024-03-02T08:45:36;97.82;;;39.38;;
79202;SDS011;68630;42.748;23.278;2024-03-02T08:48:06;76.87;;;34.98;;
79202;SDS011;68630;42.748;23.278;2024-03-02T08:50:38;85.72;;;36.60;;
79202;SDS011;68630;42.748;23.278;2024-03-02T08:53:05;77.05;;;33.60;;
79202;SDS011;68630;42.748;23.278;2024-03-02T08:55:33;70.28;;;32.28;;
79202;SDS011;68630;42.748;23.278;2024-03-02T08:58:06;70.20;;;31.17;;
79202;SDS011;68630;42.748;23.278;2024-03-02T09:00:37;77.80;;;31.35;;
79202;SDS011;68630;42.748;23.278;2024-03-02T09:03:04;71.20;;;29.67;;
79202;SDS011;68630;42.748;23.278;2024-03-02T09:05:35;69.70;;;29.48;;
79202;SDS011;68630;42.748;23.278;2024-03-02T09:08:15;71.35;;;30.32;;
79202;SDS011;68630;42.748;23.278;2024-03-02T09:10:46;69.30;;;30.30;;
79202;SDS011;68630;42.748;23.278;2024-03-02T09:13:15;66.80;;;29.50;;
79202;SDS011;68630;42.748;23.278;2024-03-02T09:15:45;67.00;;;30.25;;
79202;SDS011;68630;42.748;23.278;2024-03-02T09:18:13;60.30;;;27.60;;
79202;SDS011;68630;42.748;23.278;2024-03-02T09:20:41;64.97;;;28.55;;
79202;SDS011;68630;42.748;23.278;2024-03-02T09:23:08;59.40;;;26.48;;
79202;SDS011;68630;42.748;23.278;2024-03-02T09:25:38;67.15;;;28.32;;
79202;SDS011;68630;42.748;23.278;2024-03-02T09:28:05;57.75;;;26.15;;
79202;SDS011;68630;42.748;23.278;2024-03-02T09:30:33;61.10;;;26.48;;
79202;SDS011;68630;42.748;23.278;2024-03-02T09:33:00;63.78;;;26.85;;
79202;SDS011;68630;42.748;23.278;2024-03-02T09:35:28;64.35;;;27.70;;
79202;SDS011;68630;42.748;23.278;2024-03-02T09:37:55;66.02;;;27.95;;
79202;SDS011;68630;42.748;23.278;2024-03-02T09:40:23;68.52;;;29.63;;
79202;SDS011;68630;42.748;23.278;2024-03-02T09:42:50;64.70;;;28.30;;
79202;SDS011;68630;42.748;23.278;2024-03-02T09:45:23;59.73;;;26.30;;
79202;SDS011;68630;42.748;23.278;2024-03-02T09:47:53;72.15;;;28.65;;
79202;SDS011;68630;42.748;23.278;2024-03-02T09:50:21;65.85;;;29.37;;
79202;SDS011;68630;42.748;23.278;2024-03-02T09:52:49;68.37;;;28.95;;
79202;SDS011;68630;42.748;23.278;2024-03-02T09:55:18;72.97;;;30.62;;
79202;SDS011;68630;42.748;23.278;2024-03-02T09:57:47;66.33;;;28.30;;
79202;SDS011;68630;42.748;23.278;2024-03-02T10:00:15;63.65;;;28.98;;
79202;SDS011;68630;42.748;23.278;2024-03-02T10:02:43;70.17;;;29.90;;
79202;SDS011;68630;42.748;23.278;2024-03-02T10:05:12;65.85;;;26.30;;
79202;SDS011;68630;42.748;23.278;2024-03-02T10:07:41;71.28;;;27.70;;
79202;SDS011;68630;42.748;23.278;2024-03-02T10:10:12;69.20;;;29.12;;
79202;SDS011;68630;42.748;23.278;2024-03-02T10:12:41;81.75;;;30.72;;
79202;SDS011;68630;42.748;23.278;2024-03-02T10:15:09;68.25;;;28.10;;
79202;SDS011;68630;42.748;23.278;2024-03-02T10:17:38;70.65;;;29.32;;
79202;SDS011;68630;42.748;23.278;2024-03-02T10:20:21;66.28;;;30.08;;
79202;SDS011;68630;42.748;23.278;2024-03-02T10:22:50;67.60;;;28.15;;
79202;SDS011;68630;42.748;23.278;2024-03-02T10:25:29;70.10;;;28.47;;
79202;SDS011;68630;42.748;23.278;2024-03-02T10:28:00;71.75;;;30.70;;
79202;SDS011;68630;42.748;23.278;2024-03-02T10:30:29;67.10;;;29.25;;
79202;SDS011;68630;42.748;23.278;2024-03-02T10:32:58;60.90;;;27.25;;
79202;SDS011;68630;42.748;23.278;2024-03-02T10:35:32;53.48;;;25.43;;
79202;SDS011;68630;42.748;23.278;2024-03-02T10:38:04;58.35;;;27.73;;
79202;SDS011;68630;42.748;23.278;2024-03-02T10:40:33;63.68;;;28.42;;
79202;SDS011;68630;42.748;23.278;2024-03-02T10:43:02;57.53;;;25.82;;
79202;SDS011;68630;42.748;23.278;2024-03-02T10:45:33;67.47;;;29.30;;
79202;SDS011;68630;42.748;23.278;2024-03-02T10:48:02;64.45;;;30.12;;
79202;SDS011;68630;42.748;23.278;2024-03-02T10:50:32;65.47;;;29.23;;
79202;SDS011;68630;42.748;23.278;2024-03-02T10:53:00;61.58;;;28.12;;
79202;SDS011;68630;42.748;23.278;2024-03-02T10:55:29;58.90;;;27.90;;
79202;SDS011;68630;42.748;23.278;2024-03-02T10:57:58;63.00;;;27.98;;
79202;SDS011;68630;42.748;23.278;2024-03-02T11:00:32;64.75;;;29.20;;
79202;SDS011;68630;42.748;23.278;2024-03-02T11:03:08;56.02;;;27.30;;
79202;SDS011;68630;42.748;23.278;2024-03-02T11:05:42;68.17;;;29.15;;
79202;SDS011;68630;42.748;23.278;2024-03-02T11:08:18;71.37;;;28.23;;
79202;SDS011;68630;42.748;23.278;2024-03-02T11:10:58;56.58;;;28.50;;
79202;SDS011;68630;42.748;23.278;2024-03-02T11:13:29;52.70;;;25.00;;
79202;SDS011;68630;42.748;23.278;2024-03-02T11:15:59;58.73;;;27.25;;
79202;SDS011;68630;42.748;23.278;2024-03-02T11:18:28;53.83;;;25.52;;
79202;SDS011;68630;42.748;23.278;2024-03-02T11:20:57;56.33;;;26.17;;
79202;SDS011;68630;42.748;23.278;2024-03-02T11:23:32;54.60;;;24.72;;
79202;SDS011;68630;42.748;23.278;2024-03-02T11:28:48;55.40;;;25.92;;
79202;SDS011;68630;42.748;23.278;2024-03-02T11:31:14;46.83;;;23.40;;
79202;SDS011;68630;42.748;23.278;2024-03-02T11:33:45;55.65;;;25.68;;
79202;SDS011;68630;42.748;23.278;2024-03-02T11:36:11;57.67;;;25.15;;
79202;SDS011;68630;42.748;23.278;2024-03-02T11:38:38;51.30;;;24.37;;
79202;SDS011;68630;42.748;23.278;2024-03-02T11:41:07;54.10;;;24.02;;
79202;SDS011;68630;42.748;23.278;2024-03-02T11:43:41;53.40;;;24.75;;
79202;SDS011;68630;42.748;23.278;2024-03-02T11:46:09;48.63;;;23.50;;
79202;SDS011;68630;42.748;23.278;2024-03-02T11:48:39;48.33;;;23.02;;
79202;SDS011;68630;42.748;23.278;2024-03-02T11:51:06;49.33;;;22.73;;
79202;SDS011;68630;42.748;23.278;2024-03-02T11:53:34;52.50;;;22.32;;
79202;SDS011;68630;42.748;23.278;2024-03-02T11:56:04;45.40;;;21.37;;
79202;SDS011;68630;42.748;23.278;2024-03-02T11:58:39;48.15;;;21.57;;
79202;SDS011;68630;42.748;23.278;2024-03-02T12:01:07;47.00;;;22.13;;
79202;SDS011;68630;42.748;23.278;2024-03-02T12:03:36;48.92;;;23.02;;
79202;SDS011;68630;42.748;23.278;2024-03-02T12:06:04;52.38;;;23.90;;
79202;SDS011;68630;42.748;23.278;2024-03-02T12:08:35;43.85;;;22.62;;
79202;SDS011;68630;42.748;23.278;2024-03-02T12:16:28;51.40;;;23.27;;
79202;SDS011;68630;42.748;23.278;2024-03-02T12:18:51;49.23;;;24.18;;
79202;SDS011;68630;42.748;23.278;2024-03-02T12:21:21;48.35;;;23.30;;
79202;SDS011;68630;42.748;23.278;2024-03-02T12:23:59;54.55;;;24.45;;
79202;SDS011;68630;42.748;23.278;2024-03-02T12:26:30;51.18;;;22.15;;
79202;SDS011;68630;42.748;23.278;2024-03-02T12:29:02;48.50;;;22.50;;
79202;SDS011;68630;42.748;23.278;2024-03-02T12:34:03;48.65;;;24.18;;
79202;SDS011;68630;42.748;23.278;2024-03-02T12:36:36;46.40;;;22.87;;
79202;SDS011;68630;42.748;23.278;2024-03-02T12:39:10;41.08;;;22.42;;
79202;SDS011;68630;42.748;23.278;2024-03-02T12:41:37;43.52;;;20.80;;
79202;SDS011;68630;42.748;23.278;2024-03-02T12:44:05;42.25;;;21.55;;
79202;SDS011;68630;42.748;23.278;2024-03-02T12:46:37;43.92;;;22.15;;
79202;SDS011;68630;42.748;23.278;2024-03-02T12:49:07;47.85;;;22.82;;
79202;SDS011;68630;42.748;23.278;2024-03-02T12:51:38;40.67;;;21.02;;
79202;SDS011;68630;42.748;23.278;2024-03-02T12:54:08;47.00;;;20.97;;
79202;SDS011;68630;42.748;23.278;2024-03-02T12:56:37;44.05;;;22.82;;
79202;SDS011;68630;42.748;23.278;2024-03-02T12:59:16;44.93;;;21.15;;
79202;SDS011;68630;42.748;23.278;2024-03-02T13:01:49;42.95;;;20.40;;
79202;SDS011;68630;42.748;23.278;2024-03-02T13:04:24;51.50;;;22.82;;
79202;SDS011;68630;42.748;23.278;2024-03-02T13:06:54;42.88;;;21.68;;
79202;SDS011;68630;42.748;23.278;2024-03-02T13:09:29;45.28;;;22.35;;
79202;SDS011;68630;42.748;23.278;2024-03-02T13:12:01;42.73;;;21.40;;
79202;SDS011;68630;42.748;23.278;2024-03-02T13:14:32;37.10;;;19.92;;
79202;SDS011;68630;42.748;23.278;2024-03-02T13:17:03;38.90;;;19.80;;
79202;SDS011;68630;42.748;23.278;2024-03-02T13:19:34;45.63;;;20.37;;
79202;SDS011;68630;42.748;23.278;2024-03-02T13:22:08;41.83;;;20.85;;
79202;SDS011;68630;42.748;23.278;2024-03-02T13:24:38;43.28;;;20.80;;
79202;SDS011;68630;42.748;23.278;2024-03-02T13:27:08;38.02;;;18.98;;
79202;SDS011;68630;42.748;23.278;2024-03-02T13:29:43;33.58;;;17.40;;
79202;SDS011;68630;42.748;23.278;2024-03-02T13:59:22;30.32;;;16.85;;
79202;SDS011;68630;42.748;23.278;2024-03-02T14:01:49;35.52;;;17.62;;
79202;SDS011;68630;42.748;23.278;2024-03-02T14:04:20;36.03;;;17.73;;
79202;SDS011;68630;42.748;23.278;2024-03-02T14:06:52;35.50;;;18.45;;
79202;SDS011;68630;42.748;23.278;2024-03-02T14:09:28;41.35;;;19.37;;
79202;SDS011;68630;42.748;23.278;2024-03-02T14:11:56;40.88;;;18.50;;
79202;SDS011;68630;42.748;23.278;2024-03-02T14:14:32;40.15;;;17.73;;
79202;SDS011;68630;42.748;23.278;2024-03-02T14:17:00;42.25;;;17.50;;
79202;SDS011;68630;42.748;23.278;2024-03-02T14:19:43;49.40;;;18.85;;
79202;SDS011;68630;42.748;23.278;2024-03-02T14:22:14;46.48;;;18.65;;
79202;SDS011;68630;42.748;23.278;2024-03-02T14:24:45;36.00;;;18.52;;
79202;SDS011;68630;42.748;23.278;2024-03-02T14:27:15;44.83;;;18.45;;
79202;SDS011;68630;42.748;23.278;2024-03-02T14:29:46;35.92;;;17.20;;
79202;SDS011;68630;42.748;23.278;2024-03-02T14:32:19;39.00;;;18.50;;
79202;SDS011;68630;42.748;23.278;2024-03-02T14:34:57;38.02;;;20.32;;
79202;SDS011;68630;42.748;23.278;2024-03-02T14:37:31;40.67;;;19.85;;
79202;SDS011;68630;42.748;23.278;2024-03-02T14:40:04;44.73;;;19.48;;
79202;SDS011;68630;42.748;23.278;2024-03-02T14:42:45;36.88;;;20.65;;
79202;SDS011;68630;42.748;23.278;2024-03-02T14:45:28;41.75;;;21.45;;
79202;SDS011;68630;42.748;23.278;2024-03-02T14:48:00;38.48;;;20.60;;
79202;SDS011;68630;42.748;23.278;2024-03-02T14:50:30;40.50;;;21.52;;
79202;SDS011;68630;42.748;23.278;2024-03-02T14:53:06;37.73;;;20.70;;
79202;SDS011;68630;42.748;23.278;2024-03-02T14:58:28;49.93;;;23.57;;
79202;SDS011;68630;42.748;23.278;2024-03-02T15:04:31;42.17;;;21.93;;
79202;SDS011;68630;42.748;23.278;2024-03-02T15:07:01;47.73;;;24.43;;
79202;SDS011;68630;42.748;23.278;2024-03-02T15:09:30;50.67;;;25.72;;
79202;SDS011;68630;42.748;23.278;2024-03-02T15:15:02;48.05;;;24.25;;
79202;SDS011;68630;42.748;23.278;2024-03-02T15:17:30;46.60;;;24.95;;
79202;SDS011;68630;42.748;23.278;2024-03-02T15:20:00;48.63;;;24.90;;
79202;SDS011;68630;42.748;23.278;2024-03-02T15:22:30;43.35;;;22.20;;
79202;SDS011;68630;42.748;23.278;2024-03-02T15:25:07;47.35;;;22.15;;
79202;SDS011;68630;42.748;23.278;2024-03-02T15:27:37;47.95;;;21.97;;
79202;SDS011;68630;42.748;23.278;2024-03-02T15:30:05;47.55;;;20.62;;
79202;SDS011;68630;42.748;23.278;2024-03-02T15:32:38;47.65;;;20.17;;